Carteret, France

2:26 AM CET on January 25, 2017 (GMT +0100)
Avenue de Saint-Jean | | Change Station

Elev 13 ft 49.36 °N, 1.76 °W | Updated 24 seconds ago

Clear
Clear
31.8 °F
Feels Like 32 °F
N
0.0
Wind Variable Wind from North
Gusts 1.2 mph

Today
High -- | Low -- °F
--% Chance of Precip.
Yesterday
High -- | Low -- °F
Precip. -- in
Pressure 30.36 in
Visibility -9999.0 miles
Clouds
Windchill 32 °F
Dew Point 28 °F
Humidity 86%
Rainfall 0.00 in
Snow Depth Not available.
8:47 AM 5:52 PM
Waning Crescent, 9% visible
METAR LFRC 250100Z AUTO 00000KT CAVOK 02/01 Q1028
Pressure 30.36 in
Visibility -9999.0 miles
Clouds
Windchill 32 °F
Dew Point 28 °F
Humidity 86%
Rainfall 0.00 in
Snow Depth Not available.
8:47 AM 5:52 PM
Waning Crescent, 9% visible
METAR LFRC 250100Z AUTO 00000KT CAVOK 02/01 Q1028

Get Your Daily Forecast Email!

Thanks for signing up!

Be on the lookout for a verification email in your inbox.

You'll start receiving the daily forecast at 8 AM.

×

10-Day Weather Forecast

×

Almanac

Astronomy

Jan. 25, 2017 Rise Set
Actual Time
Civil Twilight
Nautical Twilight
Astronomical Twilight
Moon
Length of Visible Light
Length of Day
Tomorrow will be .
, % of the Moon is Illuminated

Today's Extremes

Country Highs Country Lows

Community

WunderPhotos

Upload Photos

1,962,540 photos uploaded!

WunderBlog® & News

Nearby

Air Quality

  Air Quality AQ Index Pollutant
Not available.

Snow Depth

Station Depth Elevation

Earthquake Activity

City Distance Mag. Time & Date
Minimum magnitude displayed is 2.5.

Coastal Water Temperatures

Place Temperature

Stations

Nearby Weather Stations

Station Location Temp. Windchill Dew Point Humidity Wind Precip. Elev Updated Type